Airfield :
LOGIN :

Register | Disclaimer

   EN    FR    IT 

 










Legend :    VFR   Marginal VFR   IFR   Intensive IFR   Very Intensive IFR
Visi :
Ceiling :
>= 8 km
>= 3000ft
5 to 8 km
1000 to 3000 ft
1500m to 5 km
500 to 1000 ft
800 to 1500m
200 to 500 ft
< 800m
< 200 ft
Symbols :   Thunderstorms  Fog  Heavy snow  Heavy precipitations  Wind > 20 kt
SIGMETs :     Misc.  Thunderstorms  Icing  Turbulence  Mountain Waves  Volcanic Ashes







- Airport Elevation : 295 ft
- IATA code : ORN


DAOO - Es senia - Oran

METAR N/A
TAF TAF DAOO
Valid from the 21 at 06:00 until the 22 at 06:00 UTC


210500Z 2106/2206 VRB02KT 1400 BR SCT023
PROB30
TEMPO 2106/2108 0600 FG SCT010
BECMG 2109/2112 03012KT CAVOK
BECMG 2120/2123 VRB02KT
No reported NOTAMs for that airfield.
1 SIGMET reported for the Alger FIR (DAAA) :
 
Embedded thunderstorms
DAAA SIGMET 4 VALID 211545/211745 DAMM
DAAA ALGER FIR EMBD TS OBS W OF LINE N3447 E00358 - N3118 E00131 - TOP FL380 MOV E 20KT NC=



MET'MAP, your aeronautical weather chart ! - Copyright ORBIFLY December 2007 - Disclaimer

ORBIFLY MET'MAP TEAM :

Programming & Development : Alexandra Zaïnal
Concept & Development : Baudouin d'Aumeries
Co-Development & Prog : Marc-Olivier Méhu
Technical & hardware support : Manuel Goepfert

Contact : metmap@orbifly.com




SOURCES & CREDITS :

   NOAA